sensor_id;sensor_type;location;lat;lon;timestamp;temperature;humidity
66140;DHT22;52945;51.908;8.364;2022-09-09T00:01:35;19.20;64.90
66140;DHT22;52945;51.908;8.364;2022-09-09T00:04:39;19.20;64.80
66140;DHT22;52945;51.908;8.364;2022-09-09T00:07:47;19.20;64.80
66140;DHT22;52945;51.908;8.364;2022-09-09T00:10:56;19.10;65.00
66140;DHT22;52945;51.908;8.364;2022-09-09T00:14:00;19.10;65.10
66140;DHT22;52945;51.908;8.364;2022-09-09T00:17:12;19.10;65.10
66140;DHT22;52945;51.908;8.364;2022-09-09T00:20:21;19.10;65.30
66140;DHT22;52945;51.908;8.364;2022-09-09T00:23:34;19.10;65.40
66140;DHT22;52945;51.908;8.364;2022-09-09T00:26:47;19.10;65.30
66140;DHT22;52945;51.908;8.364;2022-09-09T00:29:55;19.00;65.30
66140;DHT22;52945;51.908;8.364;2022-09-09T00:33:03;19.10;65.50
66140;DHT22;52945;51.908;8.364;2022-09-09T00:36:23;19.10;65.60
66140;DHT22;52945;51.908;8.364;2022-09-09T00:39:39;19.00;65.70
66140;DHT22;52945;51.908;8.364;2022-09-09T00:42:43;19.00;65.70
66140;DHT22;52945;51.908;8.364;2022-09-09T00:56:00;19.10;66.10
66140;DHT22;52945;51.908;8.364;2022-09-09T01:05:49;19.20;65.70
66140;DHT22;52945;51.908;8.364;2022-09-09T01:09:11;19.20;65.70
66140;DHT22;52945;51.908;8.364;2022-09-09T01:12:40;19.20;65.90
66140;DHT22;52945;51.908;8.364;2022-09-09T01:15:43;19.20;65.80
66140;DHT22;52945;51.908;8.364;2022-09-09T01:18:51;19.20;65.90
66140;DHT22;52945;51.908;8.364;2022-09-09T01:22:01;19.20;66.10
66140;DHT22;52945;51.908;8.364;2022-09-09T01:28:47;19.20;65.70
66140;DHT22;52945;51.908;8.364;2022-09-09T01:34:52;19.20;66.20
66140;DHT22;52945;51.908;8.364;2022-09-09T01:37:52;19.20;66.30
66140;DHT22;52945;51.908;8.364;2022-09-09T01:40:53;19.20;66.00
66140;DHT22;52945;51.908;8.364;2022-09-09T01:43:55;19.20;66.10
66140;DHT22;52945;51.908;8.364;2022-09-09T01:46:56;19.20;66.20
66140;DHT22;52945;51.908;8.364;2022-09-09T01:49:56;19.10;66.10
66140;DHT22;52945;51.908;8.364;2022-09-09T01:52:59;19.20;66.10
66140;DHT22;52945;51.908;8.364;2022-09-09T01:56:07;19.10;66.00
66140;DHT22;52945;51.908;8.364;2022-09-09T02:02:27;19.10;65.90
66140;DHT22;52945;51.908;8.364;2022-09-09T02:05:37;19.10;65.80
66140;DHT22;52945;51.908;8.364;2022-09-09T02:08:59;19.10;65.80
66140;DHT22;52945;51.908;8.364;2022-09-09T02:12:27;19.10;65.90
66140;DHT22;52945;51.908;8.364;2022-09-09T02:15:56;19.10;65.70
66140;DHT22;52945;51.908;8.364;2022-09-09T02:19:25;19.00;65.90
66140;DHT22;52945;51.908;8.364;2022-09-09T02:22:28;19.00;65.70
66140;DHT22;52945;51.908;8.364;2022-09-09T02:25:29;19.10;65.90
66140;DHT22;52945;51.908;8.364;2022-09-09T02:28:30;19.00;66.10
66140;DHT22;52945;51.908;8.364;2022-09-09T02:31:33;19.10;65.90
66140;DHT22;52945;51.908;8.364;2022-09-09T02:34:40;19.10;65.90
66140;DHT22;52945;51.908;8.364;2022-09-09T02:37:44;19.10;66.20
66140;DHT22;52945;51.908;8.364;2022-09-09T02:40:48;19.00;66.60
66140;DHT22;52945;51.908;8.364;2022-09-09T02:43:48;19.00;66.80
66140;DHT22;52945;51.908;8.364;2022-09-09T02:47:19;19.00;66.90
66140;DHT22;52945;51.908;8.364;2022-09-09T02:50:25;19.00;67.00
66140;DHT22;52945;51.908;8.364;2022-09-09T02:54:06;19.00;67.00
66140;DHT22;52945;51.908;8.364;2022-09-09T03:00:11;19.00;67.10
66140;DHT22;52945;51.908;8.364;2022-09-09T03:03:11;19.00;67.00
66140;DHT22;52945;51.908;8.364;2022-09-09T03:06:12;19.00;67.10
66140;DHT22;52945;51.908;8.364;2022-09-09T03:09:13;19.10;67.20
66140;DHT22;52945;51.908;8.364;2022-09-09T03:12:13;19.00;67.20
66140;DHT22;52945;51.908;8.364;2022-09-09T03:15:14;19.00;67.30
66140;DHT22;52945;51.908;8.364;2022-09-09T03:18:15;19.00;67.50
66140;DHT22;52945;51.908;8.364;2022-09-09T03:21:16;19.00;67.50
66140;DHT22;52945;51.908;8.364;2022-09-09T03:24:16;19.00;67.30
66140;DHT22;52945;51.908;8.364;2022-09-09T03:27:18;19.00;67.30
66140;DHT22;52945;51.908;8.364;2022-09-09T03:30:23;19.00;67.40
66140;DHT22;52945;51.908;8.364;2022-09-09T03:33:24;19.00;67.60
66140;DHT22;52945;51.908;8.364;2022-09-09T03:36:25;19.00;67.60
66140;DHT22;52945;51.908;8.364;2022-09-09T03:39:26;18.90;67.60
66140;DHT22;52945;51.908;8.364;2022-09-09T03:42:27;18.90;67.80
66140;DHT22;52945;51.908;8.364;2022-09-09T03:45:27;19.00;67.80
66140;DHT22;52945;51.908;8.364;2022-09-09T03:48:28;19.00;67.80
66140;DHT22;52945;51.908;8.364;2022-09-09T03:51:29;18.90;67.80
66140;DHT22;52945;51.908;8.364;2022-09-09T03:54:29;18.90;67.90
66140;DHT22;52945;51.908;8.364;2022-09-09T03:57:30;19.00;67.90
66140;DHT22;52945;51.908;8.364;2022-09-09T04:00:31;18.90;68.10
66140;DHT22;52945;51.908;8.364;2022-09-09T04:03:32;18.90;68.00
66140;DHT22;52945;51.908;8.364;2022-09-09T04:06:33;18.90;67.90
66140;DHT22;52945;51.908;8.364;2022-09-09T04:09:33;18.90;68.90
66140;DHT22;52945;51.908;8.364;2022-09-09T04:12:35;18.90;70.60
66140;DHT22;52945;51.908;8.364;2022-09-09T04:15:35;18.90;72.00
66140;DHT22;52945;51.908;8.364;2022-09-09T04:18:36;18.80;72.60
66140;DHT22;52945;51.908;8.364;2022-09-09T04:21:37;18.80;73.30
66140;DHT22;52945;51.908;8.364;2022-09-09T04:24:39;18.80;73.40
66140;DHT22;52945;51.908;8.364;2022-09-09T04:27:40;18.80;73.60
66140;DHT22;52945;51.908;8.364;2022-09-09T04:30:41;18.80;73.70
66140;DHT22;52945;51.908;8.364;2022-09-09T04:33:43;18.70;73.90
66140;DHT22;52945;51.908;8.364;2022-09-09T04:36:43;18.70;73.70
66140;DHT22;52945;51.908;8.364;2022-09-09T04:39:44;18.70;73.60
66140;DHT22;52945;51.908;8.364;2022-09-09T04:42:45;18.70;73.70
66140;DHT22;52945;51.908;8.364;2022-09-09T04:45:50;18.70;73.80
66140;DHT22;52945;51.908;8.364;2022-09-09T04:48:51;18.70;73.80
66140;DHT22;52945;51.908;8.364;2022-09-09T04:51:53;18.70;73.80
66140;DHT22;52945;51.908;8.364;2022-09-09T04:54:53;18.70;74.00
66140;DHT22;52945;51.908;8.364;2022-09-09T04:57:54;18.70;73.80
66140;DHT22;52945;51.908;8.364;2022-09-09T05:01:02;18.70;73.80
66140;DHT22;52945;51.908;8.364;2022-09-09T05:04:02;18.70;73.80
66140;DHT22;52945;51.908;8.364;2022-09-09T05:07:03;18.70;73.90
66140;DHT22;52945;51.908;8.364;2022-09-09T05:10:04;18.70;73.90
66140;DHT22;52945;51.908;8.364;2022-09-09T05:13:06;18.70;74.00
66140;DHT22;52945;51.908;8.364;2022-09-09T05:16:06;18.70;74.10
66140;DHT22;52945;51.908;8.364;2022-09-09T05:19:07;18.70;74.10
66140;DHT22;52945;51.908;8.364;2022-09-09T05:22:08;18.70;74.10
66140;DHT22;52945;51.908;8.364;2022-09-09T05:25:09;18.70;74.10
66140;DHT22;52945;51.908;8.364;2022-09-09T05:28:09;18.70;73.90
66140;DHT22;52945;51.908;8.364;2022-09-09T05:31:12;18.70;74.10
66140;DHT22;52945;51.908;8.364;2022-09-09T05:34:13;18.70;74.10
66140;DHT22;52945;51.908;8.364;2022-09-09T05:37:14;18.70;74.50
66140;DHT22;52945;51.908;8.364;2022-09-09T05:40:14;18.70;74.40
66140;DHT22;52945;51.908;8.364;2022-09-09T05:43:15;18.70;74.50
66140;DHT22;52945;51.908;8.364;2022-09-09T05:46:20;18.70;74.60
66140;DHT22;52945;51.908;8.364;2022-09-09T05:49:21;18.70;74.40
66140;DHT22;52945;51.908;8.364;2022-09-09T05:52:22;18.70;74.60
66140;DHT22;52945;51.908;8.364;2022-09-09T05:55:24;18.70;74.80
66140;DHT22;52945;51.908;8.364;2022-09-09T05:58:25;18.70;74.80
66140;DHT22;52945;51.908;8.364;2022-09-09T06:01:27;18.80;75.20
66140;DHT22;52945;51.908;8.364;2022-09-09T06:04:28;18.80;74.90
66140;DHT22;52945;51.908;8.364;2022-09-09T06:07:30;18.80;75.20
66140;DHT22;52945;51.908;8.364;2022-09-09T06:10:31;18.80;74.90
66140;DHT22;52945;51.908;8.364;2022-09-09T06:13:32;18.80;74.70
66140;DHT22;52945;51.908;8.364;2022-09-09T06:16:33;18.90;74.70
66140;DHT22;52945;51.908;8.364;2022-09-09T06:19:34;18.90;74.90
66140;DHT22;52945;51.908;8.364;2022-09-09T06:22:35;18.90;75.20
66140;DHT22;52945;51.908;8.364;2022-09-09T06:25:36;19.00;75.00
66140;DHT22;52945;51.908;8.364;2022-09-09T06:28:36;19.10;75.00
66140;DHT22;52945;51.908;8.364;2022-09-09T06:31:37;19.10;75.20
66140;DHT22;52945;51.908;8.364;2022-09-09T06:34:38;19.20;75.00
66140;DHT22;52945;51.908;8.364;2022-09-09T06:37:39;19.20;74.60
66140;DHT22;52945;51.908;8.364;2022-09-09T06:40:39;19.30;73.70
66140;DHT22;52945;51.908;8.364;2022-09-09T06:43:40;19.30;74.00
66140;DHT22;52945;51.908;8.364;2022-09-09T06:46:41;19.30;73.80
66140;DHT22;52945;51.908;8.364;2022-09-09T06:49:41;19.40;73.70
66140;DHT22;52945;51.908;8.364;2022-09-09T06:52:46;19.40;73.40
66140;DHT22;52945;51.908;8.364;2022-09-09T06:55:48;19.50;73.40
66140;DHT22;52945;51.908;8.364;2022-09-09T06:58:49;19.50;73.10
66140;DHT22;52945;51.908;8.364;2022-09-09T07:01:50;19.50;72.70
66140;DHT22;52945;51.908;8.364;2022-09-09T07:04:52;19.50;72.40
66140;DHT22;52945;51.908;8.364;2022-09-09T07:07:52;19.50;72.20
66140;DHT22;52945;51.908;8.364;2022-09-09T07:10:53;19.60;72.20
66140;DHT22;52945;51.908;8.364;2022-09-09T07:13:54;19.60;72.30
66140;DHT22;52945;51.908;8.364;2022-09-09T07:16:55;19.60;72.00
66140;DHT22;52945;51.908;8.364;2022-09-09T07:19:55;19.60;72.10
66140;DHT22;52945;51.908;8.364;2022-09-09T07:22:57;19.50;71.40
66140;DHT22;52945;51.908;8.364;2022-09-09T07:25:59;19.50;71.40
66140;DHT22;52945;51.908;8.364;2022-09-09T07:29:00;19.70;71.80
66140;DHT22;52945;51.908;8.364;2022-09-09T07:32:00;19.60;71.50
66140;DHT22;52945;51.908;8.364;2022-09-09T07:35:03;19.70;71.50
66140;DHT22;52945;51.908;8.364;2022-09-09T07:38:04;19.70;71.30
66140;DHT22;52945;51.908;8.364;2022-09-09T07:41:08;19.80;71.20
66140;DHT22;52945;51.908;8.364;2022-09-09T07:44:23;19.80;71.10
66140;DHT22;52945;51.908;8.364;2022-09-09T07:47:25;19.90;71.10
66140;DHT22;52945;51.908;8.364;2022-09-09T07:50:25;20.00;71.20
66140;DHT22;52945;51.908;8.364;2022-09-09T07:53:26;20.00;71.10
66140;DHT22;52945;51.908;8.364;2022-09-09T07:56:28;20.10;70.70
66140;DHT22;52945;51.908;8.364;2022-09-09T07:59:29;20.10;70.50
66140;DHT22;52945;51.908;8.364;2022-09-09T08:02:30;20.20;70.60
66140;DHT22;52945;51.908;8.364;2022-09-09T08:05:32;20.30;70.00
66140;DHT22;52945;51.908;8.364;2022-09-09T08:08:34;20.40;69.10
66140;DHT22;52945;51.908;8.364;2022-09-09T08:11:35;20.50;69.10
66140;DHT22;52945;51.908;8.364;2022-09-09T08:14:36;20.60;68.80
66140;DHT22;52945;51.908;8.364;2022-09-09T08:17:37;20.80;68.50
66140;DHT22;52945;51.908;8.364;2022-09-09T08:20:38;20.80;67.40
66140;DHT22;52945;51.908;8.364;2022-09-09T08:23:42;20.90;66.70
66140;DHT22;52945;51.908;8.364;2022-09-09T08:26:47;21.00;65.10
66140;DHT22;52945;51.908;8.364;2022-09-09T08:29:51;21.10;65.30
66140;DHT22;52945;51.908;8.364;2022-09-09T08:32:51;21.20;64.30
66140;DHT22;52945;51.908;8.364;2022-09-09T08:35:52;21.30;64.40
66140;DHT22;52945;51.908;8.364;2022-09-09T08:38:55;21.30;62.90
66140;DHT22;52945;51.908;8.364;2022-09-09T08:45:23;21.60;61.90
66140;DHT22;52945;51.908;8.364;2022-09-09T08:48:35;21.70;60.00
66140;DHT22;52945;51.908;8.364;2022-09-09T08:51:41;21.80;59.70
66140;DHT22;52945;51.908;8.364;2022-09-09T08:54:42;21.80;60.10
66140;DHT22;52945;51.908;8.364;2022-09-09T08:57:43;21.70;59.80
66140;DHT22;52945;51.908;8.364;2022-09-09T09:10:57;21.50;59.50
66140;DHT22;52945;51.908;8.364;2022-09-09T09:14:07;21.60;59.50
66140;DHT22;52945;51.908;8.364;2022-09-09T09:17:14;21.50;59.10
66140;DHT22;52945;51.908;8.364;2022-09-09T09:20:16;21.70;59.30
66140;DHT22;52945;51.908;8.364;2022-09-09T09:23:24;22.10;58.90
66140;DHT22;52945;51.908;8.364;2022-09-09T09:26:35;22.50;57.30
66140;DHT22;52945;51.908;8.364;2022-09-09T09:29:37;22.80;56.00
66140;DHT22;52945;51.908;8.364;2022-09-09T09:32:39;22.90;55.00
66140;DHT22;52945;51.908;8.364;2022-09-09T09:35:41;23.20;53.60
66140;DHT22;52945;51.908;8.364;2022-09-09T09:38:59;23.40;52.30
66140;DHT22;52945;51.908;8.364;2022-09-09T09:42:11;23.50;52.40
66140;DHT22;52945;51.908;8.364;2022-09-09T09:45:25;23.70;51.30
66140;DHT22;52945;51.908;8.364;2022-09-09T09:48:28;23.70;51.00
66140;DHT22;52945;51.908;8.364;2022-09-09T09:51:30;23.70;51.00
66140;DHT22;52945;51.908;8.364;2022-09-09T09:54:37;23.70;51.30
66140;DHT22;52945;51.908;8.364;2022-09-09T09:57:38;23.60;50.80
66140;DHT22;52945;51.908;8.364;2022-09-09T10:00:51;23.60;51.00
66140;DHT22;52945;51.908;8.364;2022-09-09T10:03:54;23.60;51.70
66140;DHT22;52945;51.908;8.364;2022-09-09T10:06:57;23.60;51.30
66140;DHT22;52945;51.908;8.364;2022-09-09T10:09:58;23.70;51.30
66140;DHT22;52945;51.908;8.364;2022-09-09T10:13:18;23.90;50.90
66140;DHT22;52945;51.908;8.364;2022-09-09T10:19:33;24.30;49.30
66140;DHT22;52945;51.908;8.364;2022-09-09T10:22:35;24.50;49.30
66140;DHT22;52945;51.908;8.364;2022-09-09T10:26:25;24.60;48.60
66140;DHT22;52945;51.908;8.364;2022-09-09T10:36:12;24.70;47.60
66140;DHT22;52945;51.908;8.364;2022-09-09T10:42:36;24.80;47.90
66140;DHT22;52945;51.908;8.364;2022-09-09T10:52:48;25.20;47.50
66140;DHT22;52945;51.908;8.364;2022-09-09T10:55:58;25.20;46.40
66140;DHT22;52945;51.908;8.364;2022-09-09T10:59:33;25.20;45.80
66140;DHT22;52945;51.908;8.364;2022-09-09T11:02:36;25.30;46.10
66140;DHT22;52945;51.908;8.364;2022-09-09T11:05:40;25.50;46.40
66140;DHT22;52945;51.908;8.364;2022-09-09T11:08:42;25.60;45.90
66140;DHT22;52945;51.908;8.364;2022-09-09T11:11:55;25.80;45.30
66140;DHT22;52945;51.908;8.364;2022-09-09T11:15:07;26.10;45.10
66140;DHT22;52945;51.908;8.364;2022-09-09T11:18:19;26.30;44.00
66140;DHT22;52945;51.908;8.364;2022-09-09T11:21:27;26.30;44.10
66140;DHT22;52945;51.908;8.364;2022-09-09T11:24:38;26.20;43.60
66140;DHT22;52945;51.908;8.364;2022-09-09T11:27:57;26.20;44.30
66140;DHT22;52945;51.908;8.364;2022-09-09T11:31:43;26.10;44.60
66140;DHT22;52945;51.908;8.364;2022-09-09T11:41:01;25.60;42.80
66140;DHT22;52945;51.908;8.364;2022-09-09T11:44:11;25.50;42.90
66140;DHT22;52945;51.908;8.364;2022-09-09T11:47:23;25.60;43.60
66140;DHT22;52945;51.908;8.364;2022-09-09T11:50:33;25.80;43.20
66140;DHT22;52945;51.908;8.364;2022-09-09T11:53:36;26.00;41.40
66140;DHT22;52945;51.908;8.364;2022-09-09T11:56:48;26.10;39.80
66140;DHT22;52945;51.908;8.364;2022-09-09T11:59:52;26.30;39.00
66140;DHT22;52945;51.908;8.364;2022-09-09T12:02:53;26.40;40.70
66140;DHT22;52945;51.908;8.364;2022-09-09T12:05:56;26.70;40.60
66140;DHT22;52945;51.908;8.364;2022-09-09T12:09:15;26.80;40.30
66140;DHT22;52945;51.908;8.364;2022-09-09T12:12:21;27.00;40.30
66140;DHT22;52945;51.908;8.364;2022-09-09T12:15:25;27.20;40.10
66140;DHT22;52945;51.908;8.364;2022-09-09T12:18:36;27.40;40.20
66140;DHT22;52945;51.908;8.364;2022-09-09T12:21:48;27.60;40.30
66140;DHT22;52945;51.908;8.364;2022-09-09T12:24:53;27.70;40.00
66140;DHT22;52945;51.908;8.364;2022-09-09T12:34:30;28.10;39.00
66140;DHT22;52945;51.908;8.364;2022-09-09T12:37:56;28.30;38.70
66140;DHT22;52945;51.908;8.364;2022-09-09T12:40:58;28.30;38.50
66140;DHT22;52945;51.908;8.364;2022-09-09T12:44:08;28.20;38.20
66140;DHT22;52945;51.908;8.364;2022-09-09T12:47:11;28.00;37.90
66140;DHT22;52945;51.908;8.364;2022-09-09T12:50:19;27.90;37.20
66140;DHT22;52945;51.908;8.364;2022-09-09T12:53:30;27.60;36.80
66140;DHT22;52945;51.908;8.364;2022-09-09T12:56:32;27.40;36.80
66140;DHT22;52945;51.908;8.364;2022-09-09T12:59:41;27.10;37.20
66140;DHT22;52945;51.908;8.364;2022-09-09T13:02:47;26.80;38.10
66140;DHT22;52945;51.908;8.364;2022-09-09T13:05:50;26.40;39.90
66140;DHT22;52945;51.908;8.364;2022-09-09T13:08:52;26.20;41.40
66140;DHT22;52945;51.908;8.364;2022-09-09T13:11:56;26.00;42.10
66140;DHT22;52945;51.908;8.364;2022-09-09T13:14:58;25.90;43.00
66140;DHT22;52945;51.908;8.364;2022-09-09T13:18:04;25.90;43.10
66140;DHT22;52945;51.908;8.364;2022-09-09T13:21:06;25.80;43.20
66140;DHT22;52945;51.908;8.364;2022-09-09T13:24:33;25.70;41.80
66140;DHT22;52945;51.908;8.364;2022-09-09T13:27:37;25.70;41.80
66140;DHT22;52945;51.908;8.364;2022-09-09T13:30:41;25.80;42.30
66140;DHT22;52945;51.908;8.364;2022-09-09T13:33:44;25.80;41.60
66140;DHT22;52945;51.908;8.364;2022-09-09T13:36:48;26.00;41.60
66140;DHT22;52945;51.908;8.364;2022-09-09T13:39:53;26.20;40.80
66140;DHT22;52945;51.908;8.364;2022-09-09T13:42:56;26.30;41.10
66140;DHT22;52945;51.908;8.364;2022-09-09T13:45:59;26.50;40.10
66140;DHT22;52945;51.908;8.364;2022-09-09T13:52:12;26.70;39.50
66140;DHT22;52945;51.908;8.364;2022-09-09T13:55:14;26.80;39.50
66140;DHT22;52945;51.908;8.364;2022-09-09T13:58:16;26.80;39.50
66140;DHT22;52945;51.908;8.364;2022-09-09T14:01:18;26.70;38.70
66140;DHT22;52945;51.908;8.364;2022-09-09T14:04:19;26.70;38.80
66140;DHT22;52945;51.908;8.364;2022-09-09T14:07:23;26.70;39.00
66140;DHT22;52945;51.908;8.364;2022-09-09T14:10:23;26.70;38.90
66140;DHT22;52945;51.908;8.364;2022-09-09T14:13:24;26.70;38.30
66140;DHT22;52945;51.908;8.364;2022-09-09T14:16:24;26.40;38.40
66140;DHT22;52945;51.908;8.364;2022-09-09T14:19:26;26.20;38.30
66140;DHT22;52945;51.908;8.364;2022-09-09T14:22:27;26.00;38.60
66140;DHT22;52945;51.908;8.364;2022-09-09T14:25:28;25.90;39.00
66140;DHT22;52945;51.908;8.364;2022-09-09T14:28:29;25.90;39.30
66140;DHT22;52945;51.908;8.364;2022-09-09T14:31:29;25.80;39.60
66140;DHT22;52945;51.908;8.364;2022-09-09T14:34:30;25.70;40.30
66140;DHT22;52945;51.908;8.364;2022-09-09T14:37:32;25.70;40.00
66140;DHT22;52945;51.908;8.364;2022-09-09T14:40:34;25.60;41.90
66140;DHT22;52945;51.908;8.364;2022-09-09T14:43:37;25.60;43.70
66140;DHT22;52945;51.908;8.364;2022-09-09T14:46:38;25.50;43.50
66140;DHT22;52945;51.908;8.364;2022-09-09T14:49:38;25.30;43.00
66140;DHT22;52945;51.908;8.364;2022-09-09T14:52:39;25.20;42.80
66140;DHT22;52945;51.908;8.364;2022-09-09T14:55:39;25.20;42.40
66140;DHT22;52945;51.908;8.364;2022-09-09T14:58:40;25.20;42.70
66140;DHT22;52945;51.908;8.364;2022-09-09T15:01:41;25.20;43.00
66140;DHT22;52945;51.908;8.364;2022-09-09T15:04:41;25.20;42.90
66140;DHT22;52945;51.908;8.364;2022-09-09T15:07:42;25.20;43.30
66140;DHT22;52945;51.908;8.364;2022-09-09T15:10:42;25.20;43.10
66140;DHT22;52945;51.908;8.364;2022-09-09T15:13:46;25.20;43.70
66140;DHT22;52945;51.908;8.364;2022-09-09T15:16:47;25.10;43.40
66140;DHT22;52945;51.908;8.364;2022-09-09T15:19:48;25.00;43.60
66140;DHT22;52945;51.908;8.364;2022-09-09T15:22:50;24.70;43.60
66140;DHT22;52945;51.908;8.364;2022-09-09T15:25:54;24.70;43.90
66140;DHT22;52945;51.908;8.364;2022-09-09T15:28:56;24.70;44.30
66140;DHT22;52945;51.908;8.364;2022-09-09T15:31:59;24.60;44.20
66140;DHT22;52945;51.908;8.364;2022-09-09T15:35:00;24.50;44.80
66140;DHT22;52945;51.908;8.364;2022-09-09T15:38:02;24.40;45.10
66140;DHT22;52945;51.908;8.364;2022-09-09T15:41:05;24.50;45.40
66140;DHT22;52945;51.908;8.364;2022-09-09T15:44:06;24.40;45.60
66140;DHT22;52945;51.908;8.364;2022-09-09T15:47:07;24.20;46.00
66140;DHT22;52945;51.908;8.364;2022-09-09T15:50:11;24.20;46.50
66140;DHT22;52945;51.908;8.364;2022-09-09T15:53:12;24.20;46.90
66140;DHT22;52945;51.908;8.364;2022-09-09T15:56:13;24.20;46.60
66140;DHT22;52945;51.908;8.364;2022-09-09T15:59:13;24.10;46.50
66140;DHT22;52945;51.908;8.364;2022-09-09T16:02:15;24.10;46.70
66140;DHT22;52945;51.908;8.364;2022-09-09T16:05:16;24.10;47.10
66140;DHT22;52945;51.908;8.364;2022-09-09T16:08:17;24.20;49.60
66140;DHT22;52945;51.908;8.364;2022-09-09T16:11:30;24.30;50.40
66140;DHT22;52945;51.908;8.364;2022-09-09T16:14:31;24.40;50.60
66140;DHT22;52945;51.908;8.364;2022-09-09T16:17:34;24.40;49.70
66140;DHT22;52945;51.908;8.364;2022-09-09T16:20:38;24.50;50.00
66140;DHT22;52945;51.908;8.364;2022-09-09T16:23:41;24.50;49.80
66140;DHT22;52945;51.908;8.364;2022-09-09T16:26:44;24.50;49.80
66140;DHT22;52945;51.908;8.364;2022-09-09T16:29:45;24.50;49.00
66140;DHT22;52945;51.908;8.364;2022-09-09T16:32:45;24.50;49.30
66140;DHT22;52945;51.908;8.364;2022-09-09T16:35:46;24.40;49.70
66140;DHT22;52945;51.908;8.364;2022-09-09T16:38:47;24.20;49.00
66140;DHT22;52945;51.908;8.364;2022-09-09T16:41:49;24.20;49.10
66140;DHT22;52945;51.908;8.364;2022-09-09T16:44:49;24.10;49.40
66140;DHT22;52945;51.908;8.364;2022-09-09T16:47:52;24.00;49.30
66140;DHT22;52945;51.908;8.364;2022-09-09T16:50:52;23.80;47.20
66140;DHT22;52945;51.908;8.364;2022-09-09T16:53:54;23.50;48.60
66140;DHT22;52945;51.908;8.364;2022-09-09T16:56:55;23.40;49.40
66140;DHT22;52945;51.908;8.364;2022-09-09T16:59:55;23.20;51.20
66140;DHT22;52945;51.908;8.364;2022-09-09T17:02:59;23.20;52.90
66140;DHT22;52945;51.908;8.364;2022-09-09T17:06:00;23.10;54.90
66140;DHT22;52945;51.908;8.364;2022-09-09T17:09:06;23.00;55.40
66140;DHT22;52945;51.908;8.364;2022-09-09T17:12:08;22.90;55.50
66140;DHT22;52945;51.908;8.364;2022-09-09T17:15:09;22.80;56.50
66140;DHT22;52945;51.908;8.364;2022-09-09T17:18:11;22.70;57.00
66140;DHT22;52945;51.908;8.364;2022-09-09T17:21:14;22.70;56.70
66140;DHT22;52945;51.908;8.364;2022-09-09T17:24:15;22.60;57.10
66140;DHT22;52945;51.908;8.364;2022-09-09T17:27:16;22.60;57.80
66140;DHT22;52945;51.908;8.364;2022-09-09T17:30:16;22.50;57.00
66140;DHT22;52945;51.908;8.364;2022-09-09T17:33:17;22.30;57.50
66140;DHT22;52945;51.908;8.364;2022-09-09T17:36:30;22.20;57.50
66140;DHT22;52945;51.908;8.364;2022-09-09T17:39:31;22.20;57.50
66140;DHT22;52945;51.908;8.364;2022-09-09T17:42:32;22.20;58.00
66140;DHT22;52945;51.908;8.364;2022-09-09T17:45:35;22.10;57.60
66140;DHT22;52945;51.908;8.364;2022-09-09T17:48:36;21.90;57.90
66140;DHT22;52945;51.908;8.364;2022-09-09T17:51:37;21.70;58.10
66140;DHT22;52945;51.908;8.364;2022-09-09T17:54:38;21.70;58.10
66140;DHT22;52945;51.908;8.364;2022-09-09T17:57:41;21.70;57.90
66140;DHT22;52945;51.908;8.364;2022-09-09T18:00:42;21.60;58.40
66140;DHT22;52945;51.908;8.364;2022-09-09T18:03:44;21.60;58.40
66140;DHT22;52945;51.908;8.364;2022-09-09T18:06:50;21.50;58.60
66140;DHT22;52945;51.908;8.364;2022-09-09T18:09:51;21.60;59.00
66140;DHT22;52945;51.908;8.364;2022-09-09T18:12:51;21.50;59.00
66140;DHT22;52945;51.908;8.364;2022-09-09T18:15:52;21.60;59.10
66140;DHT22;52945;51.908;8.364;2022-09-09T18:18:56;21.60;59.50
66140;DHT22;52945;51.908;8.364;2022-09-09T18:22:03;21.50;59.10
66140;DHT22;52945;51.908;8.364;2022-09-09T18:25:04;21.40;59.20
66140;DHT22;52945;51.908;8.364;2022-09-09T18:28:06;21.40;59.50
66140;DHT22;52945;51.908;8.364;2022-09-09T18:31:09;21.40;60.00
66140;DHT22;52945;51.908;8.364;2022-09-09T18:34:12;21.40;60.10
66140;DHT22;52945;51.908;8.364;2022-09-09T18:37:13;21.30;60.50
66140;DHT22;52945;51.908;8.364;2022-09-09T18:40:15;21.30;60.60
66140;DHT22;52945;51.908;8.364;2022-09-09T18:43:16;21.20;60.60
66140;DHT22;52945;51.908;8.364;2022-09-09T18:46:18;21.20;60.70
66140;DHT22;52945;51.908;8.364;2022-09-09T18:49:20;21.20;61.00
66140;DHT22;52945;51.908;8.364;2022-09-09T18:52:21;21.10;61.20
66140;DHT22;52945;51.908;8.364;2022-09-09T18:55:22;21.10;61.30
66140;DHT22;52945;51.908;8.364;2022-09-09T18:58:22;21.10;61.40
66140;DHT22;52945;51.908;8.364;2022-09-09T19:01:25;21.00;61.30
66140;DHT22;52945;51.908;8.364;2022-09-09T19:04:26;21.00;61.60
66140;DHT22;52945;51.908;8.364;2022-09-09T19:07:26;21.00;61.70
66140;DHT22;52945;51.908;8.364;2022-09-09T19:10:27;20.90;61.90
66140;DHT22;52945;51.908;8.364;2022-09-09T19:13:30;20.90;62.10
66140;DHT22;52945;51.908;8.364;2022-09-09T19:16:33;20.80;62.40
66140;DHT22;52945;51.908;8.364;2022-09-09T19:19:34;20.70;62.80
66140;DHT22;52945;51.908;8.364;2022-09-09T19:22:36;20.70;62.90
66140;DHT22;52945;51.908;8.364;2022-09-09T19:25:37;20.70;63.10
66140;DHT22;52945;51.908;8.364;2022-09-09T19:28:37;20.70;63.10
66140;DHT22;52945;51.908;8.364;2022-09-09T19:31:40;20.70;63.50
66140;DHT22;52945;51.908;8.364;2022-09-09T19:34:41;20.60;63.60
66140;DHT22;52945;51.908;8.364;2022-09-09T19:37:43;20.70;63.50
66140;DHT22;52945;51.908;8.364;2022-09-09T19:40:43;20.60;63.80
66140;DHT22;52945;51.908;8.364;2022-09-09T19:43:45;20.50;63.50
66140;DHT22;52945;51.908;8.364;2022-09-09T19:46:46;20.60;63.90
66140;DHT22;52945;51.908;8.364;2022-09-09T19:49:46;20.50;63.90
66140;DHT22;52945;51.908;8.364;2022-09-09T19:52:47;20.40;64.00
66140;DHT22;52945;51.908;8.364;2022-09-09T19:55:49;20.40;63.90
66140;DHT22;52945;51.908;8.364;2022-09-09T19:58:53;20.40;63.80
66140;DHT22;52945;51.908;8.364;2022-09-09T20:01:54;20.40;63.80
66140;DHT22;52945;51.908;8.364;2022-09-09T20:04:58;20.40;63.90
66140;DHT22;52945;51.908;8.364;2022-09-09T20:07:58;20.30;64.30
66140;DHT22;52945;51.908;8.364;2022-09-09T20:11:01;20.30;64.40
66140;DHT22;52945;51.908;8.364;2022-09-09T20:14:01;20.30;64.30
66140;DHT22;52945;51.908;8.364;2022-09-09T20:17:02;20.30;64.50
66140;DHT22;52945;51.908;8.364;2022-09-09T20:20:03;20.20;64.50
66140;DHT22;52945;51.908;8.364;2022-09-09T20:23:04;20.30;64.50
66140;DHT22;52945;51.908;8.364;2022-09-09T20:26:06;20.20;64.60
66140;DHT22;52945;51.908;8.364;2022-09-09T20:29:11;20.20;64.70
66140;DHT22;52945;51.908;8.364;2022-09-09T20:32:12;20.20;64.40
66140;DHT22;52945;51.908;8.364;2022-09-09T20:35:13;20.20;64.70
66140;DHT22;52945;51.908;8.364;2022-09-09T20:38:14;20.20;64.70
66140;DHT22;52945;51.908;8.364;2022-09-09T20:41:16;20.20;64.70